sensor_id;sensor_type;location;lat;lon;timestamp;P1;durP1;ratioP1;P2;durP2;ratioP2
313;SDS011;143;51.634;7.112;2023-04-03T00:01:00;5.57;;;2.88;;
313;SDS011;143;51.634;7.112;2023-04-03T00:03:26;6.15;;;3.30;;
313;SDS011;143;51.634;7.112;2023-04-03T00:05:51;7.10;;;3.50;;
313;SDS011;143;51.634;7.112;2023-04-03T00:08:17;8.37;;;3.70;;
313;SDS011;143;51.634;7.112;2023-04-03T00:10:43;4.20;;;2.30;;
313;SDS011;143;51.634;7.112;2023-04-03T00:13:09;3.73;;;2.30;;
313;SDS011;143;51.634;7.112;2023-04-03T00:15:35;8.65;;;2.75;;
313;SDS011;143;51.634;7.112;2023-04-03T00:18:01;5.70;;;2.67;;
313;SDS011;143;51.634;7.112;2023-04-03T00:20:27;5.75;;;3.00;;
313;SDS011;143;51.634;7.112;2023-04-03T00:22:53;9.13;;;2.77;;
313;SDS011;143;51.634;7.112;2023-04-03T00:25:19;7.27;;;2.87;;
313;SDS011;143;51.634;7.112;2023-04-03T00:27:45;7.20;;;2.53;;
313;SDS011;143;51.634;7.112;2023-04-03T00:30:11;5.00;;;3.00;;
313;SDS011;143;51.634;7.112;2023-04-03T00:32:40;7.65;;;2.88;;
313;SDS011;143;51.634;7.112;2023-04-03T00:35:05;5.13;;;2.40;;
313;SDS011;143;51.634;7.112;2023-04-03T00:37:32;7.00;;;2.90;;
313;SDS011;143;51.634;7.112;2023-04-03T00:39:57;6.80;;;2.70;;
313;SDS011;143;51.634;7.112;2023-04-03T00:42:24;6.60;;;2.97;;
313;SDS011;143;51.634;7.112;2023-04-03T00:47:18;7.72;;;2.78;;
313;SDS011;143;51.634;7.112;2023-04-03T00:49:44;6.85;;;2.60;;
313;SDS011;143;51.634;7.112;2023-04-03T00:52:12;12.02;;;3.10;;
313;SDS011;143;51.634;7.112;2023-04-03T00:54:41;5.78;;;2.28;;
313;SDS011;143;51.634;7.112;2023-04-03T00:57:08;4.20;;;2.33;;
313;SDS011;143;51.634;7.112;2023-04-03T00:59:39;4.75;;;2.60;;
313;SDS011;143;51.634;7.112;2023-04-03T01:02:09;4.00;;;2.70;;
313;SDS011;143;51.634;7.112;2023-04-03T01:04:36;8.40;;;2.40;;
313;SDS011;143;51.634;7.112;2023-04-03T01:09:39;9.95;;;2.50;;
313;SDS011;143;51.634;7.112;2023-04-03T01:12:39;7.65;;;2.63;;
313;SDS011;143;51.634;7.112;2023-04-03T01:15:08;4.43;;;2.58;;
313;SDS011;143;51.634;7.112;2023-04-03T01:25:36;3.30;;;1.80;;
313;SDS011;143;51.634;7.112;2023-04-03T01:28:09;14.60;;;2.70;;
313;SDS011;143;51.634;7.112;2023-04-03T01:30:40;8.43;;;2.47;;
313;SDS011;143;51.634;7.112;2023-04-03T01:33:12;9.18;;;2.92;;
313;SDS011;143;51.634;7.112;2023-04-03T01:35:38;5.00;;;2.10;;
313;SDS011;143;51.634;7.112;2023-04-03T01:38:03;9.50;;;2.60;;
313;SDS011;143;51.634;7.112;2023-04-03T01:40:29;7.40;;;2.63;;
313;SDS011;143;51.634;7.112;2023-04-03T01:42:55;7.50;;;2.30;;
313;SDS011;143;51.634;7.112;2023-04-03T01:45:21;14.90;;;2.07;;
313;SDS011;143;51.634;7.112;2023-04-03T01:47:46;8.40;;;3.43;;
313;SDS011;143;51.634;7.112;2023-04-03T01:50:12;10.23;;;2.40;;
313;SDS011;143;51.634;7.112;2023-04-03T01:52:38;4.30;;;1.80;;
313;SDS011;143;51.634;7.112;2023-04-03T01:55:03;4.30;;;1.93;;
313;SDS011;143;51.634;7.112;2023-04-03T01:57:29;9.43;;;3.30;;
313;SDS011;143;51.634;7.112;2023-04-03T01:59:55;7.10;;;2.67;;
313;SDS011;143;51.634;7.112;2023-04-03T02:02:21;9.17;;;2.70;;
313;SDS011;143;51.634;7.112;2023-04-03T02:04:46;9.10;;;3.30;;
313;SDS011;143;51.634;7.112;2023-04-03T02:07:12;5.90;;;2.27;;
313;SDS011;143;51.634;7.112;2023-04-03T02:09:38;8.63;;;2.20;;
313;SDS011;143;51.634;7.112;2023-04-03T02:12:03;8.70;;;2.53;;
313;SDS011;143;51.634;7.112;2023-04-03T02:14:29;6.50;;;2.60;;
313;SDS011;143;51.634;7.112;2023-04-03T02:16:55;8.30;;;2.20;;
313;SDS011;143;51.634;7.112;2023-04-03T02:19:20;7.20;;;2.00;;
313;SDS011;143;51.634;7.112;2023-04-03T02:21:46;3.63;;;1.70;;
313;SDS011;143;51.634;7.112;2023-04-03T02:24:12;6.80;;;2.57;;
313;SDS011;143;51.634;7.112;2023-04-03T02:26:37;9.40;;;2.27;;
313;SDS011;143;51.634;7.112;2023-04-03T02:29:03;6.43;;;2.23;;
313;SDS011;143;51.634;7.112;2023-04-03T02:31:29;7.03;;;2.20;;
313;SDS011;143;51.634;7.112;2023-04-03T02:33:55;4.07;;;2.30;;
313;SDS011;143;51.634;7.112;2023-04-03T02:36:20;4.67;;;2.27;;
313;SDS011;143;51.634;7.112;2023-04-03T02:38:46;9.50;;;2.60;;
313;SDS011;143;51.634;7.112;2023-04-03T02:41:13;8.82;;;2.30;;
313;SDS011;143;51.634;7.112;2023-04-03T02:43:38;15.50;;;2.50;;
313;SDS011;143;51.634;7.112;2023-04-03T02:46:04;4.80;;;2.27;;
313;SDS011;143;51.634;7.112;2023-04-03T02:48:32;9.40;;;2.22;;
313;SDS011;143;51.634;7.112;2023-04-03T02:50:58;7.05;;;2.47;;
313;SDS011;143;51.634;7.112;2023-04-03T02:53:24;7.17;;;2.30;;
313;SDS011;143;51.634;7.112;2023-04-03T02:55:50;9.13;;;2.63;;
313;SDS011;143;51.634;7.112;2023-04-03T02:58:15;6.07;;;2.10;;
313;SDS011;143;51.634;7.112;2023-04-03T03:00:41;7.67;;;2.50;;
313;SDS011;143;51.634;7.112;2023-04-03T03:03:07;6.40;;;2.33;;
313;SDS011;143;51.634;7.112;2023-04-03T03:05:33;6.67;;;2.27;;
313;SDS011;143;51.634;7.112;2023-04-03T03:07:58;5.67;;;2.60;;
313;SDS011;143;51.634;7.112;2023-04-03T03:10:24;6.00;;;2.40;;
313;SDS011;143;51.634;7.112;2023-04-03T03:12:50;4.70;;;2.07;;
313;SDS011;143;51.634;7.112;2023-04-03T03:15:16;7.07;;;2.23;;
313;SDS011;143;51.634;7.112;2023-04-03T03:17:42;6.03;;;2.17;;
313;SDS011;143;51.634;7.112;2023-04-03T03:20:08;14.02;;;3.05;;
313;SDS011;143;51.634;7.112;2023-04-03T03:22:35;6.25;;;2.13;;
313;SDS011;143;51.634;7.112;2023-04-03T03:25:01;11.48;;;2.53;;
313;SDS011;143;51.634;7.112;2023-04-03T03:27:28;6.45;;;2.20;;
313;SDS011;143;51.634;7.112;2023-04-03T03:29:53;4.07;;;1.80;;
313;SDS011;143;51.634;7.112;2023-04-03T03:32:19;6.60;;;2.40;;
313;SDS011;143;51.634;7.112;2023-04-03T03:34:45;7.10;;;2.20;;
313;SDS011;143;51.634;7.112;2023-04-03T03:37:10;5.87;;;2.00;;
313;SDS011;143;51.634;7.112;2023-04-03T03:39:36;4.00;;;2.27;;
313;SDS011;143;51.634;7.112;2023-04-03T03:42:02;6.80;;;2.40;;
313;SDS011;143;51.634;7.112;2023-04-03T03:44:28;4.13;;;2.25;;
313;SDS011;143;51.634;7.112;2023-04-03T03:46:54;11.43;;;3.37;;
313;SDS011;143;51.634;7.112;2023-04-03T03:49:20;3.88;;;2.10;;
313;SDS011;143;51.634;7.112;2023-04-03T03:51:46;12.83;;;2.20;;
313;SDS011;143;51.634;7.112;2023-04-03T03:54:12;11.33;;;2.23;;
313;SDS011;143;51.634;7.112;2023-04-03T03:56:38;10.60;;;2.67;;
313;SDS011;143;51.634;7.112;2023-04-03T03:59:03;7.00;;;2.20;;
313;SDS011;143;51.634;7.112;2023-04-03T04:01:29;6.63;;;2.50;;
313;SDS011;143;51.634;7.112;2023-04-03T04:03:55;11.48;;;2.30;;
313;SDS011;143;51.634;7.112;2023-04-03T04:06:21;5.33;;;2.00;;
313;SDS011;143;51.634;7.112;2023-04-03T04:08:46;7.23;;;2.30;;
313;SDS011;143;51.634;7.112;2023-04-03T04:11:12;4.80;;;2.03;;
313;SDS011;143;51.634;7.112;2023-04-03T04:13:38;6.03;;;2.53;;
313;SDS011;143;51.634;7.112;2023-04-03T04:16:04;4.80;;;2.10;;
313;SDS011;143;51.634;7.112;2023-04-03T04:18:30;4.93;;;2.50;;
313;SDS011;143;51.634;7.112;2023-04-03T04:20:56;9.40;;;2.30;;
313;SDS011;143;51.634;7.112;2023-04-03T04:23:21;9.30;;;1.90;;
313;SDS011;143;51.634;7.112;2023-04-03T04:25:48;6.70;;;2.37;;
313;SDS011;143;51.634;7.112;2023-04-03T04:28:14;5.47;;;2.13;;
313;SDS011;143;51.634;7.112;2023-04-03T04:30:40;12.57;;;3.13;;
313;SDS011;143;51.634;7.112;2023-04-03T04:33:06;8.33;;;2.30;;
313;SDS011;143;51.634;7.112;2023-04-03T04:35:32;12.30;;;2.83;;
313;SDS011;143;51.634;7.112;2023-04-03T04:37:58;7.75;;;2.85;;
313;SDS011;143;51.634;7.112;2023-04-03T04:40:25;10.02;;;3.60;;
313;SDS011;143;51.634;7.112;2023-04-03T04:42:51;7.47;;;2.80;;
313;SDS011;143;51.634;7.112;2023-04-03T04:45:16;8.00;;;2.70;;
313;SDS011;143;51.634;7.112;2023-04-03T04:47:42;8.17;;;3.20;;
313;SDS011;143;51.634;7.112;2023-04-03T04:50:08;5.80;;;2.80;;
313;SDS011;143;51.634;7.112;2023-04-03T04:52:34;13.38;;;4.75;;
313;SDS011;143;51.634;7.112;2023-04-03T04:55:00;6.40;;;3.00;;
313;SDS011;143;51.634;7.112;2023-04-03T04:57:26;9.77;;;3.43;;
313;SDS011;143;51.634;7.112;2023-04-03T04:59:51;12.87;;;2.80;;
313;SDS011;143;51.634;7.112;2023-04-03T05:02:17;4.87;;;2.60;;
313;SDS011;143;51.634;7.112;2023-04-03T05:04:43;11.23;;;3.57;;
313;SDS011;143;51.634;7.112;2023-04-03T05:07:09;5.27;;;2.50;;
313;SDS011;143;51.634;7.112;2023-04-03T05:09:34;9.63;;;3.17;;
313;SDS011;143;51.634;7.112;2023-04-03T05:12:00;7.37;;;2.50;;
313;SDS011;143;51.634;7.112;2023-04-03T05:14:27;16.40;;;2.53;;
313;SDS011;143;51.634;7.112;2023-04-03T05:16:53;7.07;;;2.70;;
313;SDS011;143;51.634;7.112;2023-04-03T05:19:19;4.67;;;2.30;;
313;SDS011;143;51.634;7.112;2023-04-03T05:21:46;13.07;;;2.60;;
313;SDS011;143;51.634;7.112;2023-04-03T05:24:12;11.32;;;2.85;;
313;SDS011;143;51.634;7.112;2023-04-03T05:26:38;10.98;;;3.15;;
313;SDS011;143;51.634;7.112;2023-04-03T05:29:04;5.43;;;2.43;;
313;SDS011;143;51.634;7.112;2023-04-03T05:31:30;6.63;;;2.83;;
313;SDS011;143;51.634;7.112;2023-04-03T05:33:56;9.80;;;2.60;;
313;SDS011;143;51.634;7.112;2023-04-03T05:36:21;9.53;;;2.80;;
313;SDS011;143;51.634;7.112;2023-04-03T05:38:47;6.60;;;2.87;;
313;SDS011;143;51.634;7.112;2023-04-03T05:41:14;11.63;;;2.83;;
313;SDS011;143;51.634;7.112;2023-04-03T05:43:41;10.90;;;2.80;;
313;SDS011;143;51.634;7.112;2023-04-03T05:46:14;9.20;;;3.03;;
313;SDS011;143;51.634;7.112;2023-04-03T05:48:42;10.57;;;3.30;;
313;SDS011;143;51.634;7.112;2023-04-03T05:51:13;7.10;;;2.95;;
313;SDS011;143;51.634;7.112;2023-04-03T05:53:41;15.55;;;3.30;;
313;SDS011;143;51.634;7.112;2023-04-03T05:56:08;7.07;;;3.00;;
313;SDS011;143;51.634;7.112;2023-04-03T05:58:33;5.37;;;2.37;;
313;SDS011;143;51.634;7.112;2023-04-03T06:00:59;8.40;;;2.77;;
313;SDS011;143;51.634;7.112;2023-04-03T06:03:25;9.50;;;2.87;;
313;SDS011;143;51.634;7.112;2023-04-03T06:05:51;6.95;;;2.30;;
313;SDS011;143;51.634;7.112;2023-04-03T06:08:17;4.67;;;2.40;;
313;SDS011;143;51.634;7.112;2023-04-03T06:10:43;9.23;;;2.60;;
313;SDS011;143;51.634;7.112;2023-04-03T06:13:09;9.07;;;3.13;;
313;SDS011;143;51.634;7.112;2023-04-03T06:15:36;6.67;;;2.80;;
313;SDS011;143;51.634;7.112;2023-04-03T06:18:03;8.65;;;2.40;;
313;SDS011;143;51.634;7.112;2023-04-03T06:20:28;4.90;;;1.83;;
313;SDS011;143;51.634;7.112;2023-04-03T06:22:54;6.40;;;2.93;;
313;SDS011;143;51.634;7.112;2023-04-03T06:25:20;9.30;;;2.23;;
313;SDS011;143;51.634;7.112;2023-04-03T06:27:46;5.70;;;2.30;;
313;SDS011;143;51.634;7.112;2023-04-03T06:30:12;6.67;;;3.43;;
313;SDS011;143;51.634;7.112;2023-04-03T06:32:38;4.57;;;2.50;;
313;SDS011;143;51.634;7.112;2023-04-03T06:35:04;13.30;;;2.57;;
313;SDS011;143;51.634;7.112;2023-04-03T06:37:30;5.45;;;2.30;;
313;SDS011;143;51.634;7.112;2023-04-03T06:39:57;4.55;;;2.00;;
313;SDS011;143;51.634;7.112;2023-04-03T06:42:23;6.03;;;2.37;;
313;SDS011;143;51.634;7.112;2023-04-03T06:44:49;6.80;;;2.30;;
313;SDS011;143;51.634;7.112;2023-04-03T06:47:15;9.93;;;2.73;;
313;SDS011;143;51.634;7.112;2023-04-03T06:49:41;9.90;;;2.50;;
313;SDS011;143;51.634;7.112;2023-04-03T06:52:07;7.05;;;2.80;;
313;SDS011;143;51.634;7.112;2023-04-03T06:54:34;12.45;;;3.55;;
313;SDS011;143;51.634;7.112;2023-04-03T06:57:00;7.73;;;2.47;;
313;SDS011;143;51.634;7.112;2023-04-03T06:59:26;7.43;;;2.00;;
313;SDS011;143;51.634;7.112;2023-04-03T07:01:52;9.02;;;4.15;;
313;SDS011;143;51.634;7.112;2023-04-03T07:04:18;8.00;;;2.42;;
313;SDS011;143;51.634;7.112;2023-04-03T07:06:45;6.78;;;2.38;;
313;SDS011;143;51.634;7.112;2023-04-03T07:09:12;7.38;;;2.45;;
313;SDS011;143;51.634;7.112;2023-04-03T07:11:39;4.75;;;2.17;;
313;SDS011;143;51.634;7.112;2023-04-03T07:14:04;11.73;;;3.07;;
313;SDS011;143;51.634;7.112;2023-04-03T07:16:32;5.05;;;1.85;;
313;SDS011;143;51.634;7.112;2023-04-03T07:18:59;4.28;;;2.10;;
313;SDS011;143;51.634;7.112;2023-04-03T07:21:25;4.00;;;2.07;;
313;SDS011;143;51.634;7.112;2023-04-03T07:23:51;5.13;;;2.37;;
313;SDS011;143;51.634;7.112;2023-04-03T07:26:16;15.30;;;2.97;;
313;SDS011;143;51.634;7.112;2023-04-03T07:28:42;5.38;;;2.30;;
313;SDS011;143;51.634;7.112;2023-04-03T07:31:11;6.55;;;2.22;;
313;SDS011;143;51.634;7.112;2023-04-03T07:33:38;6.60;;;2.50;;
313;SDS011;143;51.634;7.112;2023-04-03T07:36:06;5.63;;;2.30;;
313;SDS011;143;51.634;7.112;2023-04-03T07:38:33;3.95;;;2.15;;
313;SDS011;143;51.634;7.112;2023-04-03T07:41:00;4.80;;;1.90;;
313;SDS011;143;51.634;7.112;2023-04-03T07:43:26;7.13;;;2.40;;
313;SDS011;143;51.634;7.112;2023-04-03T07:45:52;6.63;;;2.10;;
313;SDS011;143;51.634;7.112;2023-04-03T07:48:20;9.13;;;2.40;;
313;SDS011;143;51.634;7.112;2023-04-03T07:50:46;12.65;;;2.83;;
313;SDS011;143;51.634;7.112;2023-04-03T07:53:12;5.37;;;2.10;;
313;SDS011;143;51.634;7.112;2023-04-03T07:55:39;6.35;;;2.35;;
313;SDS011;143;51.634;7.112;2023-04-03T07:58:12;7.20;;;1.95;;
313;SDS011;143;51.634;7.112;2023-04-03T08:00:39;9.25;;;2.10;;
313;SDS011;143;51.634;7.112;2023-04-03T08:03:06;4.90;;;2.38;;
313;SDS011;143;51.634;7.112;2023-04-03T08:05:35;5.78;;;1.88;;
313;SDS011;143;51.634;7.112;2023-04-03T08:08:02;5.90;;;1.90;;
313;SDS011;143;51.634;7.112;2023-04-03T08:10:29;8.40;;;2.72;;
313;SDS011;143;51.634;7.112;2023-04-03T08:12:55;8.93;;;1.85;;
313;SDS011;143;51.634;7.112;2023-04-03T08:15:21;2.80;;;1.57;;
313;SDS011;143;51.634;7.112;2023-04-03T08:17:47;3.40;;;2.00;;
313;SDS011;143;51.634;7.112;2023-04-03T08:20:12;6.50;;;2.10;;
313;SDS011;143;51.634;7.112;2023-04-03T08:22:38;8.17;;;1.90;;
313;SDS011;143;51.634;7.112;2023-04-03T08:25:04;9.93;;;2.30;;
313;SDS011;143;51.634;7.112;2023-04-03T08:27:30;5.00;;;1.83;;
313;SDS011;143;51.634;7.112;2023-04-03T08:29:56;5.30;;;3.03;;
313;SDS011;143;51.634;7.112;2023-04-03T08:32:22;8.90;;;2.87;;
313;SDS011;143;51.634;7.112;2023-04-03T08:34:48;4.90;;;2.13;;
313;SDS011;143;51.634;7.112;2023-04-03T08:37:14;4.43;;;1.90;;
313;SDS011;143;51.634;7.112;2023-04-03T08:39:41;5.73;;;2.60;;
313;SDS011;143;51.634;7.112;2023-04-03T08:42:13;5.30;;;2.00;;
313;SDS011;143;51.634;7.112;2023-04-03T08:49:59;7.17;;;2.30;;
313;SDS011;143;51.634;7.112;2023-04-03T08:52:50;4.27;;;2.10;;
313;SDS011;143;51.634;7.112;2023-04-03T08:55:22;5.53;;;1.60;;
313;SDS011;143;51.634;7.112;2023-04-03T08:57:51;8.57;;;2.20;;
313;SDS011;143;51.634;7.112;2023-04-03T09:00:46;6.63;;;2.07;;
313;SDS011;143;51.634;7.112;2023-04-03T09:03:20;3.70;;;1.73;;
313;SDS011;143;51.634;7.112;2023-04-03T09:14:42;5.70;;;2.03;;
313;SDS011;143;51.634;7.112;2023-04-03T09:25:53;5.60;;;1.70;;
313;SDS011;143;51.634;7.112;2023-04-03T09:28:23;4.60;;;1.60;;
313;SDS011;143;51.634;7.112;2023-04-03T09:30:48;2.53;;;1.27;;
313;SDS011;143;51.634;7.112;2023-04-03T09:33:14;8.53;;;1.37;;
313;SDS011;143;51.634;7.112;2023-04-03T09:35:42;5.93;;;1.40;;
313;SDS011;143;51.634;7.112;2023-04-03T09:43:20;2.80;;;1.30;;
313;SDS011;143;51.634;7.112;2023-04-03T09:45:48;2.90;;;1.50;;
313;SDS011;143;51.634;7.112;2023-04-03T09:48:25;3.93;;;2.53;;
313;SDS011;143;51.634;7.112;2023-04-03T09:50:54;2.33;;;1.30;;
313;SDS011;143;51.634;7.112;2023-04-03T09:56:01;8.73;;;1.90;;
313;SDS011;143;51.634;7.112;2023-04-03T09:58:48;3.33;;;1.50;;
313;SDS011;143;51.634;7.112;2023-04-03T10:01:36;5.20;;;1.60;;
313;SDS011;143;51.634;7.112;2023-04-03T10:04:05;2.77;;;1.30;;
313;SDS011;143;51.634;7.112;2023-04-03T10:06:47;4.07;;;1.27;;
313;SDS011;143;51.634;7.112;2023-04-03T10:12:00;2.87;;;1.37;;
313;SDS011;143;51.634;7.112;2023-04-03T10:14:34;3.97;;;1.50;;
313;SDS011;143;51.634;7.112;2023-04-03T10:17:18;4.13;;;1.40;;
313;SDS011;143;51.634;7.112;2023-04-03T10:20:16;7.07;;;1.40;;
313;SDS011;143;51.634;7.112;2023-04-03T10:23:27;3.17;;;1.20;;
313;SDS011;143;51.634;7.112;2023-04-03T10:28:31;4.43;;;1.50;;
313;SDS011;143;51.634;7.112;2023-04-03T10:33:44;5.50;;;1.50;;
313;SDS011;143;51.634;7.112;2023-04-03T10:39:26;2.20;;;1.53;;
313;SDS011;143;51.634;7.112;2023-04-03T10:42:48;5.73;;;1.33;;
313;SDS011;143;51.634;7.112;2023-04-03T10:48:04;2.70;;;1.17;;
313;SDS011;143;51.634;7.112;2023-04-03T10:56:13;4.67;;;1.20;;
313;SDS011;143;51.634;7.112;2023-04-03T11:01:44;3.37;;;1.57;;
313;SDS011;143;51.634;7.112;2023-04-03T11:04:13;2.53;;;1.03;;
313;SDS011;143;51.634;7.112;2023-04-03T11:09:44;3.20;;;1.53;;
313;SDS011;143;51.634;7.112;2023-04-03T11:12:14;1.67;;;0.93;;
313;SDS011;143;51.634;7.112;2023-04-03T11:14:44;2.30;;;1.17;;
313;SDS011;143;51.634;7.112;2023-04-03T11:17:33;5.00;;;1.13;;
313;SDS011;143;51.634;7.112;2023-04-03T11:20:20;4.00;;;1.90;;
313;SDS011;143;51.634;7.112;2023-04-03T11:25:37;4.03;;;1.40;;
313;SDS011;143;51.634;7.112;2023-04-03T11:28:09;3.90;;;1.30;;
313;SDS011;143;51.634;7.112;2023-04-03T11:30:43;4.27;;;1.50;;
313;SDS011;143;51.634;7.112;2023-04-03T11:33:26;2.87;;;1.47;;
313;SDS011;143;51.634;7.112;2023-04-03T11:36:08;4.47;;;1.80;;
313;SDS011;143;51.634;7.112;2023-04-03T11:38:45;4.60;;;1.40;;
313;SDS011;143;51.634;7.112;2023-04-03T11:41:12;2.30;;;1.10;;
313;SDS011;143;51.634;7.112;2023-04-03T11:43:55;1.60;;;1.00;;
313;SDS011;143;51.634;7.112;2023-04-03T11:46:55;3.23;;;1.43;;
313;SDS011;143;51.634;7.112;2023-04-03T11:55:35;2.47;;;1.20;;
313;SDS011;143;51.634;7.112;2023-04-03T12:16:03;4.90;;;1.53;;
313;SDS011;143;51.634;7.112;2023-04-03T12:18:31;1.60;;;0.93;;
313;SDS011;143;51.634;7.112;2023-04-03T12:21:21;2.30;;;1.00;;
313;SDS011;143;51.634;7.112;2023-04-03T12:26:31;2.63;;;1.10;;
313;SDS011;143;51.634;7.112;2023-04-03T12:40:43;2.13;;;1.40;;
313;SDS011;143;51.634;7.112;2023-04-03T12:46:24;4.10;;;1.57;;
313;SDS011;143;51.634;7.112;2023-04-03T12:49:02;1.93;;;1.00;;
313;SDS011;143;51.634;7.112;2023-04-03T12:51:56;5.13;;;1.70;;
313;SDS011;143;51.634;7.112;2023-04-03T12:54:23;9.37;;;2.00;;
313;SDS011;143;51.634;7.112;2023-04-03T12:59:53;2.60;;;1.33;;
313;SDS011;143;51.634;7.112;2023-04-03T13:04:55;2.27;;;1.20;;
313;SDS011;143;51.634;7.112;2023-04-03T13:07:29;2.27;;;1.20;;
313;SDS011;143;51.634;7.112;2023-04-03T13:12:31;1.67;;;1.10;;
313;SDS011;143;51.634;7.112;2023-04-03T13:15:02;3.00;;;1.20;;
313;SDS011;143;51.634;7.112;2023-04-03T13:17:39;2.70;;;1.07;;
313;SDS011;143;51.634;7.112;2023-04-03T13:20:10;3.33;;;1.30;;
313;SDS011;143;51.634;7.112;2023-04-03T13:22:48;3.87;;;1.10;;
313;SDS011;143;51.634;7.112;2023-04-03T13:25:14;2.93;;;1.10;;
313;SDS011;143;51.634;7.112;2023-04-03T13:27:41;2.20;;;1.20;;
313;SDS011;143;51.634;7.112;2023-04-03T13:30:19;8.40;;;1.50;;
313;SDS011;143;51.634;7.112;2023-04-03T13:32:55;2.50;;;1.30;;
313;SDS011;143;51.634;7.112;2023-04-03T13:37:54;6.90;;;1.10;;
313;SDS011;143;51.634;7.112;2023-04-03T13:40:22;2.10;;;1.33;;
313;SDS011;143;51.634;7.112;2023-04-03T13:42:58;3.33;;;1.13;;
313;SDS011;143;51.634;7.112;2023-04-03T13:45:31;2.93;;;1.27;;
313;SDS011;143;51.634;7.112;2023-04-03T13:48:09;6.93;;;1.53;;
313;SDS011;143;51.634;7.112;2023-04-03T13:53:29;3.73;;;1.50;;
313;SDS011;143;51.634;7.112;2023-04-03T13:58:29;8.80;;;1.53;;
313;SDS011;143;51.634;7.112;2023-04-03T14:03:56;5.43;;;1.20;;
313;SDS011;143;51.634;7.112;2023-04-03T14:06:24;3.47;;;1.03;;
313;SDS011;143;51.634;7.112;2023-04-03T14:08:51;2.90;;;1.27;;
313;SDS011;143;51.634;7.112;2023-04-03T14:11:19;2.10;;;1.27;;
313;SDS011;143;51.634;7.112;2023-04-03T14:13:49;1.50;;;1.10;;
313;SDS011;143;51.634;7.112;2023-04-03T14:16:16;8.60;;;1.63;;
313;SDS011;143;51.634;7.112;2023-04-03T14:18:45;13.80;;;2.00;;
313;SDS011;143;51.634;7.112;2023-04-03T14:21:13;2.40;;;1.40;;
313;SDS011;143;51.634;7.112;2023-04-03T14:23:40;5.63;;;1.80;;
313;SDS011;143;51.634;7.112;2023-04-03T14:26:13;4.70;;;1.33;;
313;SDS011;143;51.634;7.112;2023-04-03T14:28:45;4.20;;;1.10;;
313;SDS011;143;51.634;7.112;2023-04-03T14:31:12;3.97;;;1.80;;
313;SDS011;143;51.634;7.112;2023-04-03T14:33:39;3.73;;;1.40;;
313;SDS011;143;51.634;7.112;2023-04-03T14:38:41;3.00;;;1.53;;
313;SDS011;143;51.634;7.112;2023-04-03T14:41:13;5.10;;;1.50;;
313;SDS011;143;51.634;7.112;2023-04-03T14:43:40;2.93;;;1.30;;
313;SDS011;143;51.634;7.112;2023-04-03T14:46:17;7.67;;;1.97;;
313;SDS011;143;51.634;7.112;2023-04-03T14:48:46;4.37;;;1.70;;
313;SDS011;143;51.634;7.112;2023-04-03T14:51:13;6.07;;;1.27;;
313;SDS011;143;51.634;7.112;2023-04-03T14:53:40;3.37;;;1.60;;
313;SDS011;143;51.634;7.112;2023-04-03T14:56:11;5.90;;;1.43;;
313;SDS011;143;51.634;7.112;2023-04-03T14:58:54;5.60;;;1.73;;
313;SDS011;143;51.634;7.112;2023-04-03T15:01:22;4.37;;;1.70;;
313;SDS011;143;51.634;7.112;2023-04-03T15:03:47;5.53;;;1.33;;
313;SDS011;143;51.634;7.112;2023-04-03T15:06:13;5.53;;;2.10;;
313;SDS011;143;51.634;7.112;2023-04-03T15:08:40;9.70;;;1.33;;
313;SDS011;143;51.634;7.112;2023-04-03T15:11:07;3.90;;;1.20;;
313;SDS011;143;51.634;7.112;2023-04-03T15:13:35;5.10;;;1.63;;
313;SDS011;143;51.634;7.112;2023-04-03T15:16:01;4.47;;;1.50;;
313;SDS011;143;51.634;7.112;2023-04-03T15:18:29;6.53;;;1.87;;
313;SDS011;143;51.634;7.112;2023-04-03T15:20:59;13.00;;;1.90;;
313;SDS011;143;51.634;7.112;2023-04-03T15:23:24;3.90;;;1.57;;
313;SDS011;143;51.634;7.112;2023-04-03T15:25:51;3.47;;;1.57;;
313;SDS011;143;51.634;7.112;2023-04-03T15:28:19;3.87;;;1.43;;
313;SDS011;143;51.634;7.112;2023-04-03T15:30:50;5.33;;;1.97;;
313;SDS011;143;51.634;7.112;2023-04-03T15:33:15;3.27;;;1.70;;
313;SDS011;143;51.634;7.112;2023-04-03T15:35:41;3.20;;;1.57;;
313;SDS011;143;51.634;7.112;2023-04-03T15:38:08;3.10;;;1.63;;
313;SDS011;143;51.634;7.112;2023-04-03T15:40:34;4.00;;;1.30;;
313;SDS011;143;51.634;7.112;2023-04-03T15:43:00;2.50;;;1.60;;
313;SDS011;143;51.634;7.112;2023-04-03T15:45:27;2.90;;;1.63;;
313;SDS011;143;51.634;7.112;2023-04-03T15:47:54;2.87;;;1.57;;
313;SDS011;143;51.634;7.112;2023-04-03T15:50:21;5.43;;;2.80;;
313;SDS011;143;51.634;7.112;2023-04-03T15:52:48;3.00;;;1.50;;
313;SDS011;143;51.634;7.112;2023-04-03T15:55:26;4.23;;;1.90;;
313;SDS011;143;51.634;7.112;2023-04-03T15:57:54;2.70;;;1.40;;
313;SDS011;143;51.634;7.112;2023-04-03T16:00:20;2.40;;;1.50;;
313;SDS011;143;51.634;7.112;2023-04-03T16:02:47;8.03;;;1.50;;
313;SDS011;143;51.634;7.112;2023-04-03T16:05:15;5.10;;;1.30;;
313;SDS011;143;51.634;7.112;2023-04-03T16:07:42;15.07;;;1.90;;
313;SDS011;143;51.634;7.112;2023-04-03T16:10:09;4.40;;;1.30;;
313;SDS011;143;51.634;7.112;2023-04-03T16:12:36;4.23;;;1.40;;
313;SDS011;143;51.634;7.112;2023-04-03T16:15:03;6.43;;;1.80;;
313;SDS011;143;51.634;7.112;2023-04-03T16:17:29;3.70;;;1.97;;
313;SDS011;143;51.634;7.112;2023-04-03T16:19:56;2.80;;;1.23;;
313;SDS011;143;51.634;7.112;2023-04-03T16:22:22;6.70;;;1.60;;
313;SDS011;143;51.634;7.112;2023-04-03T16:24:49;3.70;;;1.40;;
313;SDS011;143;51.634;7.112;2023-04-03T16:27:16;7.47;;;1.60;;
313;SDS011;143;51.634;7.112;2023-04-03T16:29:41;3.33;;;1.40;;
313;SDS011;143;51.634;7.112;2023-04-03T16:32:07;4.37;;;1.60;;
313;SDS011;143;51.634;7.112;2023-04-03T16:34:33;4.43;;;1.13;;
313;SDS011;143;51.634;7.112;2023-04-03T16:36:59;4.83;;;1.33;;
313;SDS011;143;51.634;7.112;2023-04-03T16:39:25;6.83;;;1.63;;
313;SDS011;143;51.634;7.112;2023-04-03T16:41:51;3.90;;;1.43;;
313;SDS011;143;51.634;7.112;2023-04-03T16:44:16;4.80;;;1.33;;
313;SDS011;143;51.634;7.112;2023-04-03T16:46:42;4.00;;;1.53;;
313;SDS011;143;51.634;7.112;2023-04-03T16:49:08;7.37;;;1.80;;
313;SDS011;143;51.634;7.112;2023-04-03T16:51:34;4.80;;;1.60;;
313;SDS011;143;51.634;7.112;2023-04-03T16:54:00;4.40;;;1.70;;
313;SDS011;143;51.634;7.112;2023-04-03T16:56:25;5.10;;;1.60;;
313;SDS011;143;51.634;7.112;2023-04-03T16:58:54;4.53;;;2.00;;
313;SDS011;143;51.634;7.112;2023-04-03T17:01:21;5.93;;;1.60;;
313;SDS011;143;51.634;7.112;2023-04-03T17:03:47;5.13;;;1.80;;
313;SDS011;143;51.634;7.112;2023-04-03T17:06:17;6.03;;;2.00;;
313;SDS011;143;51.634;7.112;2023-04-03T17:08:45;3.90;;;1.53;;
313;SDS011;143;51.634;7.112;2023-04-03T17:11:12;8.30;;;1.80;;
313;SDS011;143;51.634;7.112;2023-04-03T17:13:38;5.23;;;2.07;;
313;SDS011;143;51.634;7.112;2023-04-03T17:16:04;3.70;;;1.40;;
313;SDS011;143;51.634;7.112;2023-04-03T17:18:32;6.03;;;1.60;;
313;SDS011;143;51.634;7.112;2023-04-03T17:20:58;6.07;;;1.80;;
313;SDS011;143;51.634;7.112;2023-04-03T17:23:25;8.10;;;1.63;;
313;SDS011;143;51.634;7.112;2023-04-03T17:25:53;6.00;;;2.30;;
313;SDS011;143;51.634;7.112;2023-04-03T17:28:19;9.10;;;2.13;;
313;SDS011;143;51.634;7.112;2023-04-03T17:30:46;4.17;;;1.60;;
313;SDS011;143;51.634;7.112;2023-04-03T17:33:12;5.77;;;1.50;;
313;SDS011;143;51.634;7.112;2023-04-03T17:35:38;4.43;;;1.80;;
313;SDS011;143;51.634;7.112;2023-04-03T17:38:04;4.03;;;1.57;;
313;SDS011;143;51.634;7.112;2023-04-03T17:40:30;4.03;;;1.33;;
313;SDS011;143;51.634;7.112;2023-04-03T17:42:56;4.30;;;1.53;;
313;SDS011;143;51.634;7.112;2023-04-03T17:45:21;9.13;;;1.93;;
313;SDS011;143;51.634;7.112;2023-04-03T17:47:49;4.80;;;1.60;;
313;SDS011;143;51.634;7.112;2023-04-03T17:50:16;3.43;;;1.40;;
313;SDS011;143;51.634;7.112;2023-04-03T17:52:43;4.23;;;1.50;;
313;SDS011;143;51.634;7.112;2023-04-03T17:55:08;2.67;;;1.60;;
313;SDS011;143;51.634;7.112;2023-04-03T17:57:34;4.97;;;1.50;;
313;SDS011;143;51.634;7.112;2023-04-03T18:00:00;4.70;;;2.03;;
313;SDS011;143;51.634;7.112;2023-04-03T18:02:26;4.23;;;1.60;;
313;SDS011;143;51.634;7.112;2023-04-03T18:04:52;5.60;;;1.60;;
313;SDS011;143;51.634;7.112;2023-04-03T18:07:18;5.40;;;2.13;;